TCGUK LTBS-LTBA
Flight info
| Callsign | TCGUK |
|---|---|
| Flight time | N/A |
| Altitude | 45000 |
| Route | RIVBU1C/19 RIVBU DCT SISPI |
| Aircraft | C25C/M-SDE2E3FGHRWXY/LB1 |
Departure
| Time | 2026-04-22 18:01 |
|---|---|
| Airport | Dalaman International Airport (LTBS) |
Arrival
| Time | N/A |
|---|---|
| Airport | İstanbul Atatürk Airport (LTBA) |
| Time | Latitude | Longitude | Altitude | Speed | Heading |
|---|---|---|---|---|---|
| 2026-04-22 17:34 | 36.71561 | 28.79000 | 9 ft | 0 kts | 105° |
| 2026-04-22 17:50 | 36.71565 | 28.78980 | 9 ft | 2 kts | 104° |
| 2026-04-22 17:51 | 36.71568 | 28.78961 | 9 ft | 2 kts | 102° |
| 2026-04-22 17:51 | 36.71571 | 28.78940 | 9 ft | 2 kts | 97° |
| 2026-04-22 17:51 | 36.71572 | 28.78920 | 9 ft | 2 kts | 79° |
| 2026-04-22 17:51 | 36.71564 | 28.78906 | 9 ft | 1 kts | 25° |
| 2026-04-22 17:52 | 36.71562 | 28.78905 | 9 ft | 0 kts | 22° |
| 2026-04-22 17:54 | 36.71563 | 28.78906 | 9 ft | 1 kts | 22° |
| 2026-04-22 17:54 | 36.71591 | 28.78917 | 9 ft | 5 kts | 17° |
| 2026-04-22 17:55 | 36.71627 | 28.78929 | 10 ft | 6 kts | 13° |
| 2026-04-22 17:55 | 36.71672 | 28.78944 | 10 ft | 7 kts | 14° |
| 2026-04-22 17:55 | 36.71722 | 28.78962 | 10 ft | 7 kts | 13° |
| 2026-04-22 17:55 | 36.71773 | 28.78979 | 10 ft | 8 kts | 15° |
| 2026-04-22 17:56 | 36.71827 | 28.78996 | 10 ft | 8 kts | 14° |
| 2026-04-22 17:56 | 36.71882 | 28.79018 | 10 ft | 8 kts | 25° |
| 2026-04-22 17:56 | 36.71903 | 28.79067 | 10 ft | 5 kts | 103° |
| 2026-04-22 17:56 | 36.71890 | 28.79107 | 10 ft | 5 kts | 107° |
| 2026-04-22 17:57 | 36.71879 | 28.79156 | 10 ft | 6 kts | 103° |
| 2026-04-22 17:57 | 36.71873 | 28.79210 | 10 ft | 6 kts | 71° |
| 2026-04-22 17:57 | 36.71895 | 28.79233 | 10 ft | 1 kts | 21° |
| 2026-04-22 17:57 | 36.71909 | 28.79239 | 10 ft | 3 kts | 18° |
| 2026-04-22 17:58 | 36.71930 | 28.79245 | 11 ft | 4 kts | 14° |
| 2026-04-22 17:58 | 36.71972 | 28.79260 | 11 ft | 7 kts | 14° |
| 2026-04-22 17:58 | 36.72024 | 28.79277 | 11 ft | 8 kts | 15° |
| 2026-04-22 17:58 | 36.72080 | 28.79296 | 11 ft | 9 kts | 14° |
| 2026-04-22 17:59 | 36.72126 | 28.79339 | 11 ft | 8 kts | 72° |
| 2026-04-22 17:59 | 36.72117 | 28.79384 | 11 ft | 0 kts | 135° |
| 2026-04-22 17:59 | 36.72109 | 28.79390 | 10 ft | 2 kts | 161° |
| 2026-04-22 17:59 | 36.72058 | 28.79408 | 10 ft | 11 kts | 165° |
| 2026-04-22 18:00 | 36.72007 | 28.79422 | 10 ft | 12 kts | 171° |
| 2026-04-22 18:00 | 36.71881 | 28.79446 | 10 ft | 41 kts | 196° |
| 2026-04-22 18:00 | 36.71206 | 28.79213 | 87 ft | 147 kts | 192° |
| 2026-04-22 18:00 | 36.70036 | 28.78831 | 427 ft | 205 kts | 193° |
| 2026-04-22 18:01 | 36.68476 | 28.78255 | 482 ft | 254 kts | 195° |
| 2026-04-22 18:01 | 36.66762 | 28.77566 | 1001 ft | 274 kts | 196° |
| 2026-04-22 18:01 | 36.65107 | 28.76850 | 1436 ft | 221 kts | 197° |
| 2026-04-22 18:01 | 36.63715 | 28.76244 | 1419 ft | 210 kts | 197° |
| 2026-04-22 18:02 | 36.62327 | 28.75624 | 1476 ft | 222 kts | 197° |
| 2026-04-22 18:02 | 36.60714 | 28.74892 | 1497 ft | 270 kts | 198° |
| 2026-04-22 18:02 | 36.58979 | 28.74010 | 2084 ft | 243 kts | 201° |